Time;durP1;ratioP1;P1;durP2;ratioP2;P2;SDS_P1;SDS_P2;PMS_P1;PMS_P2;Temp;Humidity;BMP_temperature;BMP_pressure;BME280_temperature;BME280_humidity;BME280_pressure;Samples;Min_cycle;Max_cycle;Signal;HPM_P1;HPM_P2
2023/09/29 00:01:17;;;;;;;7.55;5.30;;;16.30;1.00;;;;;;7392267;19;20014;-70
2023/09/29 00:03:47;;;;;;;7.35;5.82;;;16.30;1.00;;;;;;7393616;19;20011;-70
2023/09/29 00:06:18;;;;;;;9.38;6.30;;;16.30;1.00;;;;;;7391838;19;20019;-69
2023/09/29 00:08:48;;;;;;;9.57;6.28;;;16.40;1.00;;;;;;7391021;19;20392;-70
2023/09/29 00:11:18;;;;;;;8.15;5.97;;;16.30;1.00;;;;;;7391997;19;20600;-70
2023/09/29 00:13:48;;;;;;;10.30;6.38;;;16.30;1.00;;;;;;7391997;19;20014;-70
2023/09/29 00:16:20;;;;;;;9.32;6.30;;;16.30;1.00;;;;;;7391300;19;20007;-70
2023/09/29 00:18:50;;;;;;;9.65;6.05;;;16.30;1.00;;;;;;7392811;19;20340;-70
2023/09/29 00:21:20;;;;;;;7.72;5.35;;;16.30;1.00;;;;;;7390410;19;20702;-70
2023/09/29 00:23:50;;;;;;;9.10;5.60;;;16.20;1.00;;;;;;7393888;19;20052;-69
2023/09/29 00:26:20;;;;;;;8.77;5.28;;;16.20;1.00;;;;;;7391187;19;20534;-70
2023/09/29 00:28:50;;;;;;;8.75;5.18;;;16.20;1.00;;;;;;7393654;19;20086;-70
2023/09/29 00:31:23;;;;;;;7.20;5.25;;;16.20;1.00;;;;;;7392099;19;20031;-70
2023/09/29 00:33:53;;;;;;;8.68;5.65;;;16.20;1.00;;;;;;7392640;19;20021;-70
2023/09/29 00:36:23;;;;;;;7.60;5.40;;;16.10;1.00;;;;;;7389953;19;20035;-70
2023/09/29 00:38:53;;;;;;;8.70;5.00;;;16.10;1.00;;;;;;7392533;19;20412;-70
2023/09/29 00:41:24;;;;;;;7.32;5.45;;;16.10;1.00;;;;;;7391826;19;20030;-69
2023/09/29 00:43:54;;;;;;;10.07;5.28;;;16.10;1.00;;;;;;7391937;19;20018;-70
2023/09/29 00:46:27;;;;;;;8.50;5.00;;;16.10;1.00;;;;;;7391902;19;20501;-70
2023/09/29 00:48:59;;;;;;;7.82;5.13;;;16.00;1.00;;;;;;7392232;19;20021;-70
2023/09/29 00:51:29;;;;;;;8.82;5.40;;;16.00;1.00;;;;;;7391502;19;20014;-70
2023/09/29 00:54:00;;;;;;;7.80;4.65;;;16.00;1.00;;;;;;7392010;19;20020;-70
2023/09/29 00:56:31;;;;;;;8.00;5.22;;;16.00;1.00;;;;;;7390944;19;20006;-71
2023/09/29 00:59:00;;;;;;;8.07;5.28;;;15.90;1.00;;;;;;7391377;19;20090;-70
2023/09/29 01:01:33;;;;;;;12.27;5.70;;;15.90;1.00;;;;;;7391601;19;20083;-70
2023/09/29 01:04:04;;;;;;;9.27;5.18;;;15.90;1.00;;;;;;7391444;19;20014;-69
2023/09/29 01:06:34;;;;;;;7.63;5.05;;;15.90;1.00;;;;;;7389252;19;20010;-70
2023/09/29 01:09:06;;;;;;;8.43;4.85;;;15.90;1.00;;;;;;7391402;19;20018;-71
2023/09/29 01:11:43;;;;;;;9.80;5.68;;;15.80;1.00;;;;;;7390727;19;20034;-70
2023/09/29 01:14:14;;;;;;;11.00;5.47;;;15.80;1.00;;;;;;7391221;19;20007;-71
2023/09/29 01:16:48;;;;;;;9.40;5.70;;;15.80;1.00;;;;;;7390907;19;20011;-71
2023/09/29 01:19:20;;;;;;;10.38;5.25;;;15.70;1.00;;;;;;7391064;19;20054;-71
2023/09/29 01:21:51;;;;;;;10.68;5.68;;;15.70;1.00;;;;;;7391608;19;20038;-71
2023/09/29 01:24:25;;;;;;;8.35;5.63;;;15.70;1.00;;;;;;7391996;19;20018;-72
2023/09/29 01:26:55;;;;;;;;;;;15.70;1.00;;;;;;7391081;19;20010;-72
2023/09/29 01:29:25;;;;;;;15.23;5.55;;;15.60;1.00;;;;;;7391283;19;19919;-71
2023/09/29 01:31:55;;;;;;;8.32;5.10;;;15.70;1.00;;;;;;7390768;19;20024;-70
2023/09/29 01:34:25;;;;;;;8.18;4.78;;;15.70;1.00;;;;;;7403834;19;20014;-71
2023/09/29 01:36:55;;;;;;;7.65;3.97;;;15.70;1.00;;;;;;7391326;19;20495;-71
2023/09/29 01:39:28;;;;;;;6.38;4.00;;;15.80;1.00;;;;;;7391621;19;20038;-70
2023/09/29 01:41:58;;;;;;;5.97;4.00;;;15.80;1.00;;;;;;7389300;19;20010;-69
2023/09/29 01:44:28;;;;;;;5.90;4.05;;;15.80;1.00;;;;;;7391443;19;20027;-70
2023/09/29 01:46:59;;;;;;;7.88;3.78;;;15.80;1.00;;;;;;7389094;19;20024;-70
2023/09/29 01:49:29;;;;;;;8.32;4.00;;;15.80;1.00;;;;;;7390728;19;20018;-70
2023/09/29 01:51:59;;;;;;;7.50;4.05;;;15.80;1.00;;;;;;7389208;19;20025;-71
2023/09/29 01:54:32;;;;;;;6.47;4.47;;;15.80;1.00;;;;;;7390587;19;20014;-71
2023/09/29 01:57:04;;;;;;;8.40;4.30;;;15.70;1.00;;;;;;7388163;19;20007;-70
2023/09/29 01:59:36;;;;;;;6.78;4.55;;;15.60;1.00;;;;;;7390307;19;20011;-71
2023/09/29 02:02:06;;;;;;;7.47;4.65;;;15.70;1.00;;;;;;7387821;19;20340;-70
2023/09/29 02:04:36;;;;;;;7.15;4.30;;;15.60;1.00;;;;;;7388413;19;20082;-70
2023/09/29 02:07:06;;;;;;;6.85;3.92;;;15.70;1.00;;;;;;7386863;19;20505;-71
2023/09/29 02:09:39;;;;;;;5.00;3.83;;;15.70;1.00;;;;;;7388750;19;20094;-71
2023/09/29 02:12:09;;;;;;;4.47;3.75;;;15.70;1.00;;;;;;7390524;19;20014;-70
2023/09/29 02:14:39;;;;;;;11.60;4.20;;;15.80;1.00;;;;;;7388500;19;20496;-70
2023/09/29 02:17:09;;;;;;;5.82;3.67;;;15.80;1.00;;;;;;7388934;19;20070;-70
2023/09/29 02:19:39;;;;;;;10.77;4.10;;;15.80;1.00;;;;;;7394347;19;20011;-70
2023/09/29 02:22:16;;;;;;;5.68;3.50;;;15.80;1.00;;;;;;7396146;19;20006;-71
2023/09/29 02:24:49;;;;;;;7.28;4.03;;;15.80;1.00;;;;;;7396089;19;20057;-71
2023/09/29 02:27:21;;;;;;;6.83;3.87;;;15.80;1.00;;;;;;7394270;19;20018;-70
2023/09/29 02:29:51;;;;;;;7.50;3.83;;;15.70;1.00;;;;;;7394120;19;20018;-71
2023/09/29 02:32:21;;;;;;;8.55;4.07;;;15.80;1.00;;;;;;7395540;19;20403;-70
2023/09/29 02:34:52;;;;;;;6.63;3.95;;;15.80;1.00;;;;;;7394223;19;20018;-70
2023/09/29 02:37:22;;;;;;;7.38;3.85;;;15.80;1.00;;;;;;7395115;19;20035;-72
2023/09/29 02:39:55;;;;;;;6.50;3.80;;;15.90;1.00;;;;;;7395625;19;20035;-71
2023/09/29 02:42:25;;;;;;;6.25;3.55;;;15.90;1.00;;;;;;7394537;19;20015;-71
2023/09/29 02:44:55;;;;;;;8.55;4.00;;;15.90;1.00;;;;;;7395117;19;20006;-71
2023/09/29 02:47:25;;;;;;;6.43;3.60;;;16.00;1.00;;;;;;7395859;19;20042;-71
2023/09/29 02:49:55;;;;;;;5.75;3.50;;;16.00;1.00;;;;;;7395090;19;20017;-71
2023/09/29 02:52:25;;;;;;;6.18;3.67;;;16.00;1.00;;;;;;7394027;19;20090;-71
2023/09/29 02:54:59;;;;;;;5.78;3.90;;;15.90;1.00;;;;;;7394363;19;20026;-71
2023/09/29 02:57:29;;;;;;;7.60;3.85;;;15.90;1.00;;;;;;7395544;19;20375;-71
2023/09/29 02:59:59;;;;;;;5.28;4.18;;;15.80;1.00;;;;;;7395063;19;20014;-71
2023/09/29 03:02:29;;;;;;;5.30;4.05;;;15.80;1.00;;;;;;7395085;19;20014;-71
2023/09/29 03:05:00;;;;;;;6.72;3.90;;;15.70;1.00;;;;;;7394122;19;20039;-71
2023/09/29 03:07:34;;;;;;;6.43;4.20;;;15.70;1.00;;;;;;7395852;19;20498;-69
2023/09/29 03:10:07;;;;;;;6.63;4.35;;;15.70;1.00;;;;;;7393158;19;20538;-70
2023/09/29 03:12:38;;;;;;;7.10;4.88;;;15.60;1.00;;;;;;7394803;19;20078;-69
2023/09/29 03:15:11;;;;;;;8.07;4.45;;;15.50;1.00;;;;;;7391358;19;20038;-69
2023/09/29 03:17:41;;;;;;;6.65;4.55;;;15.60;1.00;;;;;;7394369;19;20489;-69
2023/09/29 03:20:12;;;;;;;6.20;4.60;;;15.50;1.00;;;;;;7393722;19;20043;-70
2023/09/29 03:22:43;;;;;;;6.88;4.60;;;15.50;1.00;;;;;;7394362;19;20010;-69
2023/09/29 03:25:19;;;;;;;6.40;4.30;;;15.40;1.00;;;;;;7391945;19;20014;-69
2023/09/29 03:27:50;;;;;;;7.93;4.10;;;15.40;1.00;;;;;;7395363;19;20373;-70
2023/09/29 03:30:21;;;;;;;6.25;4.28;;;15.40;1.00;;;;;;7393214;19;20015;-70
2023/09/29 03:32:52;;;;;;;6.22;4.90;;;15.30;1.00;;;;;;7394901;19;20014;-70
2023/09/29 03:35:23;;;;;;;6.85;4.57;;;15.30;1.00;;;;;;7392855;19;20031;-70
2023/09/29 03:37:53;;;;;;;7.63;4.70;;;15.30;1.00;;;;;;7394680;19;20014;-70
2023/09/29 03:40:26;;;;;;;8.02;5.00;;;15.30;1.00;;;;;;7392494;19;20010;-70
2023/09/29 03:42:56;;;;;;;7.10;5.47;;;15.30;1.00;;;;;;7394708;19;20014;-70
2023/09/29 03:45:26;;;;;;;7.93;5.28;;;15.30;1.00;;;;;;7391142;19;20026;-69
2023/09/29 03:47:57;;;;;;;6.57;4.88;;;15.30;1.00;;;;;;7394170;19;20023;-70
2023/09/29 03:50:27;;;;;;;8.23;5.28;;;15.40;1.00;;;;;;7393324;19;20511;-70
2023/09/29 03:52:57;;;;;;;8.02;4.75;;;15.40;1.00;;;;;;7393714;19;20106;-70
2023/09/29 03:55:29;;;;;;;9.70;5.63;;;15.40;1.00;;;;;;7392551;19;20053;-70
2023/09/29 03:57:59;;;;;;;6.95;4.60;;;15.50;1.00;;;;;;7392457;19;20034;-70
2023/09/29 04:00:30;;;;;;;7.63;4.70;;;15.50;1.00;;;;;;7392516;19;20038;-69
2023/09/29 04:03:00;;;;;;;7.10;4.30;;;15.50;1.00;;;;;;7393673;19;20014;-70
2023/09/29 04:05:31;;;;;;;7.00;3.70;;;15.50;1.00;;;;;;7392982;19;20015;-70
2023/09/29 04:08:03;;;;;;;9.43;4.22;;;15.40;1.00;;;;;;7392778;19;20017;-70
2023/09/29 04:10:36;;;;;;;7.88;4.68;;;15.40;1.00;;;;;;7392713;19;20365;-70
2023/09/29 04:13:07;;;;;;;5.68;3.72;;;15.40;1.00;;;;;;7392665;19;20039;-70
2023/09/29 04:15:37;;;;;;;7.55;4.40;;;15.30;1.00;;;;;;7392098;19;20356;-70
2023/09/29 04:18:07;;;;;;;6.57;4.05;;;15.40;1.00;;;;;;7392811;19;20014;-70
2023/09/29 04:20:37;;;;;;;7.63;4.40;;;15.40;1.00;;;;;;7392453;19;20014;-70
2023/09/29 04:23:09;;;;;;;9.35;4.95;;;15.50;1.00;;;;;;7390549;19;20030;-70
2023/09/29 04:25:41;;;;;;;5.80;4.20;;;15.70;1.00;;;;;;7391747;19;20006;-70
2023/09/29 04:28:11;;;;;;;7.45;4.43;;;15.70;1.00;;;;;;7393020;19;20085;-70
2023/09/29 04:30:41;;;;;;;5.90;3.80;;;15.70;1.00;;;;;;7392435;19;20023;-70
2023/09/29 04:33:11;;;;;;;5.82;3.60;;;15.60;1.00;;;;;;7392342;19;20021;-70
2023/09/29 04:35:41;;;;;;;9.10;4.65;;;15.60;1.00;;;;;;7391882;19;20486;-70
2023/09/29 04:38:13;;;;;;;6.15;3.63;;;15.60;1.00;;;;;;7391603;19;20035;-70
2023/09/29 04:40:46;;;;;;;7.95;3.85;;;15.60;1.00;;;;;;7391843;19;20028;-70
2023/09/29 04:43:16;;;;;;;7.20;4.15;;;15.60;1.00;;;;;;7392015;19;20038;-70
2023/09/29 04:45:46;;;;;;;10.32;4.10;;;15.60;1.00;;;;;;7391517;19;20042;-70
2023/09/29 04:48:17;;;;;;;7.78;4.22;;;15.60;1.00;;;;;;7391115;19;20680;-71
2023/09/29 04:50:47;;;;;;;8.43;4.78;;;15.70;1.00;;;;;;7392839;19;20010;-71
2023/09/29 04:53:17;;;;;;;8.48;4.20;;;15.70;1.00;;;;;;7390409;19;20372;-71
2023/09/29 04:55:50;;;;;;;6.85;4.15;;;15.80;1.00;;;;;;7391412;19;20019;-71
2023/09/29 04:58:20;;;;;;;7.88;4.32;;;15.70;1.00;;;;;;7392207;19;20018;-70
2023/09/29 05:00:50;;;;;;;6.88;4.30;;;15.80;1.00;;;;;;7392993;19;20010;-70
2023/09/29 05:03:20;;;;;;;8.20;4.90;;;15.80;1.00;;;;;;7392461;19;20007;-70
2023/09/29 05:05:51;;;;;;;7.95;4.20;;;15.80;1.00;;;;;;7391633;19;20070;-70
2023/09/29 05:08:21;;;;;;;8.18;4.47;;;15.80;1.00;;;;;;7397211;19;20018;-70
2023/09/29 05:10:54;;;;;;;13.43;4.25;;;15.90;1.00;;;;;;7401302;19;20030;-70
2023/09/29 05:13:25;;;;;;;6.38;4.30;;;15.90;1.00;;;;;;7393245;19;20392;-71
2023/09/29 05:15:55;;;;;;;7.55;4.38;;;15.80;1.00;;;;;;7388987;19;20657;-70
2023/09/29 05:18:25;;;;;;;10.13;4.32;;;15.80;1.00;;;;;;7391940;19;20007;-70
2023/09/29 05:20:56;;;;;;;9.93;4.18;;;15.80;1.00;;;;;;7390053;19;20014;-71
2023/09/29 05:23:26;;;;;;;6.68;4.07;;;15.80;1.00;;;;;;7391670;19;20082;-71
2023/09/29 05:25:58;;;;;;;7.68;4.43;;;15.70;1.00;;;;;;7391553;19;20014;-71
2023/09/29 05:28:28;;;;;;;6.72;4.03;;;15.80;1.00;;;;;;7391665;19;20041;-70
2023/09/29 05:30:59;;;;;;;8.77;3.88;;;15.80;1.00;;;;;;7391388;19;20002;-70
2023/09/29 05:33:29;;;;;;;8.07;4.13;;;15.80;1.00;;;;;;7391930;19;20042;-71
2023/09/29 05:35:59;;;;;;;11.85;4.85;;;15.80;1.00;;;;;;7390265;19;20013;-70
2023/09/29 05:38:29;;;;;;;9.38;5.00;;;15.80;1.00;;;;;;7391528;19;20328;-70
2023/09/29 05:41:02;;;;;;;10.05;5.55;;;15.80;1.00;;;;;;7390123;19;20031;-70
2023/09/29 05:43:32;;;;;;;7.68;5.38;;;15.80;1.00;;;;;;7390430;19;20014;-71
2023/09/29 05:46:02;;;;;;;7.43;5.05;;;15.90;1.00;;;;;;7388942;19;20044;-71
2023/09/29 05:48:32;;;;;;;10.88;5.53;;;15.90;1.00;;;;;;7389138;19;20014;-71
2023/09/29 05:51:03;;;;;;;9.43;5.47;;;15.90;1.00;;;;;;7395934;19;20007;-71
2023/09/29 05:53:33;;;;;;;6.20;4.85;;;16.00;1.00;;;;;;7388225;19;20494;-71
2023/09/29 05:56:12;;;;;;;11.15;5.43;;;16.00;1.00;;;;;;7389592;19;20380;-70
2023/09/29 05:58:42;;;;;;;10.35;5.47;;;16.00;1.00;;;;;;7390565;19;20380;-70
2023/09/29 06:01:14;;;;;;;9.23;5.63;;;16.10;1.00;;;;;;7388915;19;20372;-71
2023/09/29 06:03:44;;;;;;;10.73;5.03;;;16.20;1.00;;;;;;7391096;19;20027;-71
2023/09/29 06:06:14;;;;;;;9.63;5.35;;;16.20;1.00;;;;;;7389020;19;20011;-71
2023/09/29 06:08:45;;;;;;;10.02;5.20;;;16.30;1.00;;;;;;7390173;19;20010;-71
2023/09/29 06:11:26;;;;;;;11.13;5.70;;;16.40;1.00;;;;;;7388706;19;20015;-70
2023/09/29 06:13:56;;;;;;;8.63;5.47;;;16.40;1.00;;;;;;7390890;19;20550;-70
2023/09/29 06:16:26;;;;;;;10.05;5.68;;;16.50;1.00;;;;;;7388995;19;20010;-71
2023/09/29 06:18:56;;;;;;;9.27;4.90;;;16.60;1.00;;;;;;7389704;19;20045;-71
2023/09/29 06:21:28;;;;;;;11.98;5.28;;;16.80;1.00;;;;;;7388257;19;20019;-70
2023/09/29 06:23:58;;;;;;;9.73;5.40;;;16.90;1.00;;;;;;7389160;19;20010;-71
2023/09/29 06:26:31;;;;;;;8.98;5.10;;;17.00;1.00;;;;;;7386751;19;20125;-70
2023/09/29 06:29:00;;;;;;;10.60;4.93;;;17.10;1.00;;;;;;7389696;19;20021;-70
2023/09/29 06:31:31;;;;;;;11.43;5.03;;;17.10;1.00;;;;;;7386841;19;20021;-70
2023/09/29 06:34:01;;;;;;;9.65;5.72;;;17.10;1.00;;;;;;7390199;19;20023;-71
2023/09/29 06:36:32;;;;;;;8.98;5.47;;;17.00;1.00;;;;;;7387844;19;20078;-70
2023/09/29 06:39:02;;;;;;;9.35;5.88;;;17.00;1.00;;;;;;7388303;19;20006;-70
2023/09/29 06:41:37;;;;;;;13.00;6.45;;;17.10;1.00;;;;;;7388847;19;20018;-70
2023/09/29 06:44:07;;;;;;;11.10;5.75;;;17.10;1.00;;;;;;7389028;19;20034;-70
2023/09/29 06:46:37;;;;;;;10.00;5.22;;;17.20;1.00;;;;;;7387400;19;20015;-70
2023/09/29 06:49:08;;;;;;;10.10;6.03;;;17.20;1.00;;;;;;7388285;19;20015;-70
2023/09/29 06:51:38;;;;;;;11.20;5.55;;;17.30;1.00;;;;;;7385674;19;20060;-71
2023/09/29 06:54:08;;;;;;;11.55;5.68;;;17.40;1.00;;;;;;7388350;19;20011;-71
2023/09/29 06:56:40;;;;;;;10.45;5.53;;;17.40;1.00;;;;;;7387471;19;20019;-70
2023/09/29 06:59:11;;;;;;;13.13;6.22;;;17.50;1.00;;;;;;7387682;19;20025;-71
2023/09/29 07:01:42;;;;;;;11.75;6.63;;;17.60;1.00;;;;;;7386649;19;20014;-70
2023/09/29 07:04:12;;;;;;;13.82;5.65;;;17.50;1.00;;;;;;7386954;19;20086;-70
2023/09/29 07:06:42;;;;;;;10.55;6.07;;;17.70;1.00;;;;;;7392962;19;20476;-71
2023/09/29 07:09:12;;;;;;;10.27;5.85;;;17.70;1.00;;;;;;7394021;19;20022;-70
2023/09/29 07:11:45;;;;;;;12.60;5.10;;;17.80;1.00;;;;;;7393121;19;20087;-70
2023/09/29 07:14:15;;;;;;;10.23;5.07;;;17.90;1.00;;;;;;7392363;19;20081;-71
2023/09/29 07:16:49;;;;;;;9.90;5.07;;;18.10;1.00;;;;;;7392394;19;20010;-70
2023/09/29 07:19:19;;;;;;;;;;;18.30;1.00;;;;;;7393730;19;20018;-71
2023/09/29 07:21:49;;;;;;;11.10;5.40;;;18.50;1.00;;;;;;7393434;19;20006;-71
2023/09/29 07:24:19;;;;;;;10.10;5.03;;;18.70;1.00;;;;;;7392110;19;20350;-70
2023/09/29 07:26:56;;;;;;;10.07;5.13;;;18.70;1.00;;;;;;7392571;19;20087;-71
2023/09/29 07:29:26;;;;;;;12.45;5.70;;;18.80;1.00;;;;;;7392985;19;20021;-70
2023/09/29 07:31:56;;;;;;;8.77;5.00;;;18.70;1.00;;;;;;7392798;19;20017;-70
2023/09/29 07:34:27;;;;;;;9.05;5.30;;;18.80;1.00;;;;;;7391898;19;20074;-70
2023/09/29 07:36:57;;;;;;;13.10;5.90;;;18.60;1.00;;;;;;7392533;19;20044;-70
2023/09/29 07:39:27;;;;;;;9.50;5.80;;;18.70;1.00;;;;;;7393016;19;20021;-71
2023/09/29 07:41:59;;;;;;;10.82;5.22;;;18.80;1.00;;;;;;7391021;19;20014;-70
2023/09/29 07:44:31;;;;;;;13.52;5.60;;;18.80;1.00;;;;;;7391495;19;20475;-70
2023/09/29 07:47:01;;;;;;;8.48;5.05;;;18.70;1.00;;;;;;7393480;19;20627;-71
2023/09/29 07:49:33;;;;;;;8.85;5.22;;;19.00;1.00;;;;;;7393372;19;20010;-71
2023/09/29 07:52:03;;;;;;;9.05;4.85;;;19.00;1.00;;;;;;7392982;19;20474;-70
2023/09/29 07:54:34;;;;;;;10.13;5.10;;;19.20;1.00;;;;;;7389949;19;20023;-70
2023/09/29 07:57:07;;;;;;;10.80;4.70;;;19.40;1.00;;;;;;7390026;19;20573;-71
2023/09/29 07:59:37;;;;;;;7.38;4.68;;;19.60;1.00;;;;;;7392600;19;20014;-71
2023/09/29 08:02:08;;;;;;;6.68;4.82;;;19.40;1.00;;;;;;7391221;19;20019;-70
2023/09/29 08:04:38;;;;;;;8.10;4.15;;;19.60;1.00;;;;;;7390475;19;20029;-70
2023/09/29 08:07:09;;;;;;;6.95;4.43;;;19.80;1.00;;;;;;7389866;19;20037;-71
2023/09/29 08:09:39;;;;;;;7.53;4.97;;;20.10;1.00;;;;;;7392931;19;20021;-71
2023/09/29 08:12:12;;;;;;;10.48;5.00;;;20.10;1.00;;;;;;7392222;19;20019;-72
2023/09/29 08:14:42;;;;;;;8.05;4.68;;;20.00;1.00;;;;;;7393338;19;20006;-71
2023/09/29 08:17:12;;;;;;;10.43;5.38;;;20.20;1.00;;;;;;7389217;19;20015;-71
2023/09/29 08:19:42;;;;;;;9.75;5.88;;;20.30;1.00;;;;;;7393221;19;20066;-71
2023/09/29 08:22:12;;;;;;;7.70;4.60;;;20.50;1.00;;;;;;7391852;19;20447;-71
2023/09/29 08:24:49;;;;;;;7.68;4.63;;;21.00;1.00;;;;;;7391142;19;20423;-71
2023/09/29 08:27:21;;;;;;;7.43;4.90;;;20.90;1.00;;;;;;7391147;19;20391;-71
2023/09/29 08:29:51;;;;;;;11.38;4.60;;;20.70;1.00;;;;;;7392172;19;20025;-71
2023/09/29 08:32:24;;;;;;;11.05;5.45;;;20.70;1.00;;;;;;7390432;19;20463;-72
2023/09/29 08:34:54;;;;;;;7.22;4.55;;;20.70;1.00;;;;;;7393350;19;20007;-71
2023/09/29 08:37:24;;;;;;;7.40;4.50;;;20.70;1.00;;;;;;7389402;19;20517;-70
2023/09/29 08:39:54;;;;;;;8.23;4.20;;;20.50;1.00;;;;;;7390517;19;20148;-71
2023/09/29 08:42:35;;;;;;;10.02;4.15;;;20.60;1.00;;;;;;7393242;19;20062;-70
2023/09/29 08:45:11;;;;;;;8.60;4.32;;;20.90;1.00;;;;;;7402203;19;20002;-70
2023/09/29 08:47:43;;;;;;;9.25;4.28;;;20.80;1.00;;;;;;7391697;19;20127;-70
2023/09/29 08:50:14;;;;;;;7.28;3.85;;;21.00;1.00;;;;;;7390646;19;20017;-71
2023/09/29 08:52:46;;;;;;;7.28;4.28;;;21.10;1.00;;;;;;7390509;19;20390;-70
2023/09/29 08:55:17;;;;;;;7.90;4.13;;;21.20;1.00;;;;;;7391449;19;20027;-70
2023/09/29 08:57:50;;;;;;;11.90;4.68;;;21.30;1.00;;;;;;7392649;19;20010;-71
2023/09/29 09:00:26;;;;;;;5.80;4.22;;;21.50;1.00;;;;;;7391169;19;20014;-71
2023/09/29 09:02:58;;;;;;;9.18;4.85;;;21.40;1.00;;;;;;7392239;19;20343;-71
2023/09/29 09:05:30;;;;;;;;;;;21.80;1.00;;;;;;7390677;19;20028;-71
2023/09/29 09:08:01;;;;;;;6.97;3.70;;;22.20;1.00;;;;;;7389829;19;19930;-71
2023/09/29 09:10:34;;;;;;;9.90;4.07;;;22.20;1.00;;;;;;7390463;19;20014;-71
2023/09/29 09:13:08;;;;;;;9.88;4.40;;;22.50;1.00;;;;;;7391749;19;20014;-71
2023/09/29 09:15:38;;;;;;;8.65;4.55;;;22.70;1.00;;;;;;7389067;19;20074;-71
2023/09/29 09:18:09;;;;;;;11.65;4.43;;;22.90;1.00;;;;;;7392613;19;20015;-71
2023/09/29 09:20:41;;;;;;;8.63;4.00;;;23.30;1.00;;;;;;7392019;19;20081;-71
2023/09/29 09:23:11;;;;;;;8.43;4.05;;;23.30;1.00;;;;;;7388547;19;20015;-70
2023/09/29 09:25:43;;;;;;;5.78;3.65;;;23.20;1.00;;;;;;7390220;19;20657;-71
2023/09/29 09:28:21;;;;;;;7.63;3.58;;;23.00;1.00;;;;;;7389316;19;20031;-71
2023/09/29 09:31:02;;;;;;;8.57;4.15;;;23.00;1.00;;;;;;7390528;19;20014;-71
2023/09/29 09:33:32;;;;;;;4.55;3.22;;;22.90;1.00;;;;;;7389959;19;20042;-71
2023/09/29 09:36:09;;;;;;;6.70;4.40;;;22.80;1.00;;;;;;7387824;19;20038;-71
2023/09/29 09:38:40;;;;;;;6.82;3.28;;;22.80;1.00;;;;;;7390036;19;20031;-71
2023/09/29 09:41:11;;;;;;;5.80;3.53;;;23.00;1.00;;;;;;7388678;19;20042;-70
2023/09/29 09:43:44;;;;;;;7.47;4.15;;;23.00;1.00;;;;;;7388692;19;20011;-70
2023/09/29 09:46:16;;;;;;;7.85;3.85;;;22.90;1.00;;;;;;7388135;19;20639;-70
2023/09/29 09:48:51;;;;;;;9.23;3.85;;;22.80;1.00;;;;;;7390170;19;20032;-70
2023/09/29 09:51:31;;;;;;;4.43;3.47;;;22.80;1.00;;;;;;7388751;19;20011;-70
2023/09/29 09:54:08;;;;;;;8.02;3.97;;;22.90;1.00;;;;;;7390501;19;20014;-72
2023/09/29 09:56:45;;;;;;;6.82;4.00;;;22.90;1.00;;;;;;7387955;19;20018;-71
2023/09/29 09:59:18;;;;;;;9.55;4.15;;;23.40;1.00;;;;;;7389407;19;20721;-71
2023/09/29 10:01:48;;;;;;;8.88;3.95;;;23.70;1.00;;;;;;7388135;19;20017;-70
2023/09/29 10:04:21;;;;;;;8.07;4.30;;;23.90;1.00;;;;;;7386962;19;20070;-71
2023/09/29 10:06:55;;;;;;;8.68;4.10;;;24.00;1.00;;;;;;7387928;19;20026;-71
2023/09/29 10:09:25;;;;;;;8.73;4.40;;;24.30;1.00;;;;;;7388437;19;20006;-70
2023/09/29 10:12:00;;;;;;;6.95;3.55;;;24.30;1.00;;;;;;7387013;19;20035;-70
2023/09/29 10:14:44;;;;;;;5.13;3.50;;;24.30;1.00;;;;;;7388522;19;20055;-71
2023/09/29 10:17:15;;;;;;;12.05;3.45;;;24.60;1.00;;;;;;7387227;19;20107;-71
2023/09/29 10:19:48;;;;;;;7.28;3.58;;;24.90;1.00;;;;;;7389269;19;20650;-71
2023/09/29 10:22:25;;;;;;;4.95;3.20;;;25.20;1.00;;;;;;7388166;19;20372;-71
2023/09/29 10:24:59;;;;;;;4.18;2.90;;;24.90;1.00;;;;;;7387666;19;20535;-70
2023/09/29 10:27:33;;;;;;;5.05;2.65;;;24.60;1.00;;;;;;7387870;19;20471;-71
2023/09/29 10:30:18;;;;;;;;;;;24.90;1.00;;;;;;7388888;19;20010;-70
2023/09/29 10:32:50;;;;;;;3.35;2.53;;;24.70;1.00;;;;;;7388632;19;19955;-71
2023/09/29 10:35:22;;;;;;;10.93;3.05;;;25.10;1.00;;;;;;7384880;19;20386;-71
2023/09/29 10:37:55;;;;;;;8.88;3.00;;;25.10;1.00;;;;;;7389199;19;20015;-71
2023/09/29 10:40:32;;;;;;;6.18;2.88;;;25.30;1.00;;;;;;7386394;19;20217;-70
2023/09/29 10:43:02;;;;;;;3.92;2.40;;;25.10;1.00;;;;;;7391099;19;20014;-71
2023/09/29 10:45:37;;;;;;;6.10;2.53;;;25.60;1.00;;;;;;7391836;19;20011;-71
2023/09/29 10:48:08;;;;;;;4.40;2.40;;;25.70;1.00;;;;;;7394345;19;20015;-70
2023/09/29 10:50:43;;;;;;;5.18;2.50;;;25.60;1.00;;;;;;7393867;19;20014;-71
2023/09/29 10:53:14;;;;;;;5.95;2.80;;;25.60;1.00;;;;;;7392018;19;20492;-71
2023/09/29 10:55:46;;;;;;;6.30;3.10;;;25.50;1.00;;;;;;7391596;19;20085;-70
2023/09/29 10:58:19;;;;;;;3.60;2.40;;;25.10;1.00;;;;;;7389107;19;20090;-71
2023/09/29 11:00:54;;;;;;;10.15;3.03;;;25.40;1.00;;;;;;7394102;19;20014;-71
2023/09/29 11:03:28;;;;;;;7.50;3.08;;;25.60;1.00;;;;;;7394329;19;20035;-71
2023/09/29 11:06:03;;;;;;;6.00;2.60;;;25.90;1.00;;;;;;7392013;19;20502;-72
2023/09/29 11:08:38;;;;;;;5.50;2.60;;;25.90;1.00;;;;;;7389956;19;20010;-71
2023/09/29 11:11:09;;;;;;;3.78;2.75;;;25.90;1.00;;;;;;7392046;19;20077;-71
2023/09/29 11:13:40;;;;;;;10.35;3.00;;;25.90;1.00;;;;;;7393335;19;20022;-70
2023/09/29 11:16:21;;;;;;;9.50;2.80;;;26.00;1.00;;;;;;7393546;19;20361;-71
2023/09/29 11:18:52;;;;;;;8.60;2.97;;;26.00;1.00;;;;;;7395511;19;20023;-70
2023/09/29 11:21:34;;;;;;;7.93;3.28;;;26.00;1.00;;;;;;7392610;19;20022;-70
2023/09/29 11:24:09;;;;;;;6.47;3.63;;;26.40;1.00;;;;;;7394599;19;20549;-70
2023/09/29 11:26:43;;;;;;;5.13;2.83;;;26.40;1.00;;;;;;7393361;19;20010;-70
2023/09/29 11:29:22;;;;;;;;;;;26.20;1.00;;;;;;7395079;19;20030;-70
2023/09/29 11:31:55;;;;;;;6.00;2.95;;;26.30;1.00;;;;;;7392528;19;19911;-70
2023/09/29 11:34:29;;;;;;;7.13;3.55;;;26.40;1.00;;;;;;7393717;19;20451;-71
2023/09/29 11:36:59;;;;;;;5.95;2.95;;;26.80;1.00;;;;;;7393888;19;20011;-71
2023/09/29 11:39:30;;;;;;;5.93;2.72;;;26.80;1.00;;;;;;7389223;19;20025;-71
2023/09/29 11:42:01;;;;;;;6.50;3.15;;;26.70;1.00;;;;;;7391760;19;20010;-70
2023/09/29 11:44:32;;;;;;;6.05;3.05;;;26.60;1.00;;;;;;7393582;19;20019;-71
2023/09/29 11:47:05;;;;;;;7.32;3.20;;;26.90;1.00;;;;;;7393353;19;20007;-70
2023/09/29 11:49:35;;;;;;;4.75;2.75;;;26.50;1.00;;;;;;7393051;19;20022;-70
2023/09/29 11:52:08;;;;;;;3.42;2.50;;;26.40;1.00;;;;;;7392851;19;20030;-70
2023/09/29 11:54:40;;;;;;;4.15;3.10;;;26.20;1.00;;;;;;7392440;19;20022;-70
2023/09/29 11:57:11;;;;;;;3.65;2.65;;;26.20;1.00;;;;;;7391249;19;20390;-69
2023/09/29 11:59:41;;;;;;;5.32;3.35;;;26.30;1.00;;;;;;7392651;19;20018;-70
2023/09/29 12:02:14;;;;;;;5.45;2.72;;;26.40;1.00;;;;;;7393140;19;20070;-70
2023/09/29 12:04:45;;;;;;;3.92;3.08;;;26.50;1.00;;;;;;7393534;19;20019;-71
2023/09/29 12:07:15;;;;;;;4.28;2.75;;;26.60;1.00;;;;;;7392008;19;20014;-70
2023/09/29 12:09:45;;;;;;;5.50;2.70;;;26.60;1.00;;;;;;7393356;19;20081;-70
2023/09/29 12:12:15;;;;;;;4.15;3.00;;;26.50;1.00;;;;;;7391945;19;20023;-69
2023/09/29 12:14:45;;;;;;;4.32;2.33;;;26.40;1.00;;;;;;7394145;19;20039;-70
2023/09/29 12:17:18;;;;;;;4.35;2.65;;;26.30;1.00;;;;;;7393333;19;20474;-70
2023/09/29 12:19:48;;;;;;;3.15;2.70;;;26.20;1.00;;;;;;7392214;19;20466;-70
2023/09/29 12:22:19;;;;;;;3.95;2.60;;;26.20;1.00;;;;;;7406013;19;20018;-70
2023/09/29 12:24:49;;;;;;;5.43;3.00;;;26.30;1.00;;;;;;7399693;19;20018;-70
2023/09/29 12:27:20;;;;;;;6.20;2.78;;;26.80;1.00;;;;;;7393891;19;20014;-71
2023/09/29 12:29:50;;;;;;;3.72;2.70;;;26.90;1.00;;;;;;7395354;19;20066;-71
2023/09/29 12:32:23;;;;;;;3.58;2.45;;;27.00;1.00;;;;;;7391232;19;20025;-70
2023/09/29 12:34:53;;;;;;;5.65;3.22;;;27.20;1.00;;;;;;7392202;19;20349;-71
2023/09/29 12:37:23;;;;;;;4.95;2.88;;;27.30;1.00;;;;;;7390890;19;20086;-70
2023/09/29 12:39:53;;;;;;;4.18;2.85;;;26.80;1.00;;;;;;7392924;19;20031;-70
2023/09/29 12:42:25;;;;;;;3.67;2.92;;;26.90;1.00;;;;;;7391907;19;20011;-70
2023/09/29 12:44:55;;;;;;;3.85;3.10;;;27.00;1.00;;;;;;7391329;19;20035;-70
2023/09/29 12:47:28;;;;;;;5.20;3.20;;;27.10;1.00;;;;;;7389528;19;20006;-70
2023/09/29 12:49:58;;;;;;;6.05;2.60;;;26.90;1.00;;;;;;7391078;19;20728;-71
2023/09/29 12:52:28;;;;;;;5.20;3.13;;;27.20;1.00;;;;;;7390399;19;20018;-70
2023/09/29 12:54:58;;;;;;;3.03;2.65;;;27.50;1.00;;;;;;7391653;19;20067;-70
2023/09/29 12:57:28;;;;;;;5.22;2.70;;;27.50;1.00;;;;;;7391382;19;20027;-69
2023/09/29 12:59:59;;;;;;;5.25;3.13;;;27.30;1.00;;;;;;7390468;19;20326;-71
2023/09/29 13:02:33;;;;;;;3.80;2.50;;;27.10;1.00;;;;;;7387569;19;20015;-70
2023/09/29 13:05:03;;;;;;;6.18;3.10;;;27.00;1.00;;;;;;7390096;19;20048;-71
2023/09/29 13:07:33;;;;;;;5.80;3.00;;;27.00;1.00;;;;;;7390721;19;20021;-70
2023/09/29 13:10:03;;;;;;;4.25;2.38;;;26.90;1.00;;;;;;7391110;19;20062;-70
2023/09/29 13:12:33;;;;;;;4.90;2.70;;;26.80;1.00;;;;;;7389369;19;20026;-70
2023/09/29 13:15:05;;;;;;;5.80;2.58;;;26.80;1.00;;;;;;7388066;19;20098;-70
2023/09/29 13:17:38;;;;;;;5.75;2.40;;;26.70;1.00;;;;;;7388760;19;20019;-71